sensor_id;sensor_type;location;lat;lon;timestamp;P1;durP1;ratioP1;P2;durP2;ratioP2
19059;SDS011;9663;48.996;8.334;2022-07-24T00:00:37;5.03;;;2.85;;
19059;SDS011;9663;48.996;8.334;2022-07-24T00:03:04;4.60;;;2.72;;
19059;SDS011;9663;48.996;8.334;2022-07-24T00:05:30;5.25;;;2.50;;
19059;SDS011;9663;48.996;8.334;2022-07-24T00:07:57;6.20;;;2.95;;
19059;SDS011;9663;48.996;8.334;2022-07-24T00:10:23;4.70;;;2.88;;
19059;SDS011;9663;48.996;8.334;2022-07-24T00:12:49;4.70;;;2.65;;
19059;SDS011;9663;48.996;8.334;2022-07-24T00:15:14;4.53;;;2.33;;
19059;SDS011;9663;48.996;8.334;2022-07-24T00:17:41;4.90;;;2.50;;
19059;SDS011;9663;48.996;8.334;2022-07-24T00:20:07;5.30;;;2.83;;
19059;SDS011;9663;48.996;8.334;2022-07-24T00:22:34;5.13;;;2.55;;
19059;SDS011;9663;48.996;8.334;2022-07-24T00:25:00;4.70;;;2.50;;
19059;SDS011;9663;48.996;8.334;2022-07-24T00:27:26;4.45;;;2.53;;
19059;SDS011;9663;48.996;8.334;2022-07-24T00:29:52;5.35;;;2.60;;
19059;SDS011;9663;48.996;8.334;2022-07-24T00:32:18;4.20;;;2.53;;
19059;SDS011;9663;48.996;8.334;2022-07-24T00:34:43;5.03;;;2.58;;
19059;SDS011;9663;48.996;8.334;2022-07-24T00:37:09;4.32;;;2.38;;
19059;SDS011;9663;48.996;8.334;2022-07-24T00:39:35;4.90;;;2.30;;
19059;SDS011;9663;48.996;8.334;2022-07-24T00:42:01;4.32;;;2.35;;
19059;SDS011;9663;48.996;8.334;2022-07-24T00:44:27;4.75;;;2.67;;
19059;SDS011;9663;48.996;8.334;2022-07-24T00:46:52;4.25;;;2.40;;
19059;SDS011;9663;48.996;8.334;2022-07-24T00:49:18;4.93;;;2.78;;
19059;SDS011;9663;48.996;8.334;2022-07-24T00:51:46;5.93;;;2.60;;
19059;SDS011;9663;48.996;8.334;2022-07-24T00:54:18;4.68;;;2.67;;
19059;SDS011;9663;48.996;8.334;2022-07-24T00:56:47;4.53;;;2.50;;
19059;SDS011;9663;48.996;8.334;2022-07-24T00:59:15;5.30;;;2.30;;
19059;SDS011;9663;48.996;8.334;2022-07-24T01:01:41;6.55;;;2.60;;
19059;SDS011;9663;48.996;8.334;2022-07-24T01:04:07;4.50;;;2.10;;
19059;SDS011;9663;48.996;8.334;2022-07-24T01:06:33;4.35;;;2.50;;
19059;SDS011;9663;48.996;8.334;2022-07-24T01:08:59;6.03;;;2.50;;
19059;SDS011;9663;48.996;8.334;2022-07-24T01:11:26;4.95;;;2.65;;
19059;SDS011;9663;48.996;8.334;2022-07-24T01:13:53;4.78;;;2.40;;
19059;SDS011;9663;48.996;8.334;2022-07-24T01:16:19;5.10;;;2.95;;
19059;SDS011;9663;48.996;8.334;2022-07-24T01:18:45;4.35;;;2.70;;
19059;SDS011;9663;48.996;8.334;2022-07-24T01:21:11;4.07;;;2.38;;
19059;SDS011;9663;48.996;8.334;2022-07-24T01:23:37;4.72;;;2.60;;
19059;SDS011;9663;48.996;8.334;2022-07-24T01:26:05;4.80;;;2.67;;
19059;SDS011;9663;48.996;8.334;2022-07-24T01:28:32;5.13;;;3.00;;
19059;SDS011;9663;48.996;8.334;2022-07-24T01:30:58;4.82;;;2.55;;
19059;SDS011;9663;48.996;8.334;2022-07-24T01:33:24;5.15;;;2.90;;
19059;SDS011;9663;48.996;8.334;2022-07-24T01:35:50;4.72;;;2.40;;
19059;SDS011;9663;48.996;8.334;2022-07-24T01:38:16;4.60;;;2.60;;
19059;SDS011;9663;48.996;8.334;2022-07-24T01:40:43;4.50;;;2.70;;
19059;SDS011;9663;48.996;8.334;2022-07-24T01:43:09;4.80;;;2.85;;
19059;SDS011;9663;48.996;8.334;2022-07-24T01:45:36;5.30;;;2.70;;
19059;SDS011;9663;48.996;8.334;2022-07-24T01:48:02;5.15;;;2.70;;
19059;SDS011;9663;48.996;8.334;2022-07-24T01:50:29;4.43;;;2.63;;
19059;SDS011;9663;48.996;8.334;2022-07-24T01:52:56;4.97;;;2.78;;
19059;SDS011;9663;48.996;8.334;2022-07-24T01:55:22;5.60;;;2.92;;
19059;SDS011;9663;48.996;8.334;2022-07-24T01:57:48;4.53;;;2.63;;
19059;SDS011;9663;48.996;8.334;2022-07-24T02:00:15;4.88;;;2.60;;
19059;SDS011;9663;48.996;8.334;2022-07-24T02:02:42;7.22;;;3.03;;
19059;SDS011;9663;48.996;8.334;2022-07-24T02:05:12;5.18;;;3.00;;
19059;SDS011;9663;48.996;8.334;2022-07-24T02:07:40;5.88;;;3.30;;
19059;SDS011;9663;48.996;8.334;2022-07-24T02:10:07;5.38;;;2.90;;
19059;SDS011;9663;48.996;8.334;2022-07-24T02:12:36;4.68;;;2.70;;
19059;SDS011;9663;48.996;8.334;2022-07-24T02:15:02;4.90;;;3.00;;
19059;SDS011;9663;48.996;8.334;2022-07-24T02:17:30;5.07;;;2.92;;
19059;SDS011;9663;48.996;8.334;2022-07-24T02:19:55;6.78;;;3.20;;
19059;SDS011;9663;48.996;8.334;2022-07-24T02:22:21;5.30;;;3.00;;
19059;SDS011;9663;48.996;8.334;2022-07-24T02:24:47;5.47;;;2.97;;
19059;SDS011;9663;48.996;8.334;2022-07-24T02:27:12;5.25;;;2.85;;
19059;SDS011;9663;48.996;8.334;2022-07-24T02:29:38;5.65;;;3.00;;
19059;SDS011;9663;48.996;8.334;2022-07-24T02:32:04;5.13;;;2.92;;
19059;SDS011;9663;48.996;8.334;2022-07-24T02:34:31;5.75;;;2.90;;
19059;SDS011;9663;48.996;8.334;2022-07-24T02:36:57;4.80;;;2.92;;
19059;SDS011;9663;48.996;8.334;2022-07-24T02:39:23;4.97;;;2.67;;
19059;SDS011;9663;48.996;8.334;2022-07-24T02:41:48;5.80;;;3.40;;
19059;SDS011;9663;48.996;8.334;2022-07-24T02:44:14;4.15;;;2.35;;
19059;SDS011;9663;48.996;8.334;2022-07-24T02:46:41;4.63;;;2.92;;
19059;SDS011;9663;48.996;8.334;2022-07-24T02:49:06;5.13;;;2.72;;
19059;SDS011;9663;48.996;8.334;2022-07-24T02:51:32;4.82;;;2.75;;
19059;SDS011;9663;48.996;8.334;2022-07-24T02:53:58;4.45;;;2.63;;
19059;SDS011;9663;48.996;8.334;2022-07-24T02:56:23;5.10;;;2.80;;
19059;SDS011;9663;48.996;8.334;2022-07-24T02:58:49;6.00;;;2.65;;
19059;SDS011;9663;48.996;8.334;2022-07-24T03:01:15;5.07;;;2.53;;
19059;SDS011;9663;48.996;8.334;2022-07-24T03:03:41;4.57;;;2.45;;
19059;SDS011;9663;48.996;8.334;2022-07-24T03:06:06;5.28;;;2.63;;
19059;SDS011;9663;48.996;8.334;2022-07-24T03:08:32;4.50;;;2.72;;
19059;SDS011;9663;48.996;8.334;2022-07-24T03:10:58;5.82;;;3.10;;
19059;SDS011;9663;48.996;8.334;2022-07-24T03:13:24;5.97;;;2.80;;
19059;SDS011;9663;48.996;8.334;2022-07-24T03:15:49;4.70;;;2.60;;
19059;SDS011;9663;48.996;8.334;2022-07-24T03:18:15;4.72;;;2.67;;
19059;SDS011;9663;48.996;8.334;2022-07-24T03:20:40;5.88;;;2.97;;
19059;SDS011;9663;48.996;8.334;2022-07-24T03:23:06;5.18;;;3.00;;
19059;SDS011;9663;48.996;8.334;2022-07-24T03:25:32;6.03;;;2.42;;
19059;SDS011;9663;48.996;8.334;2022-07-24T03:27:58;5.15;;;2.75;;
19059;SDS011;9663;48.996;8.334;2022-07-24T03:30:23;4.35;;;2.47;;
19059;SDS011;9663;48.996;8.334;2022-07-24T03:32:49;4.47;;;2.47;;
19059;SDS011;9663;48.996;8.334;2022-07-24T03:35:15;4.95;;;2.30;;
19059;SDS011;9663;48.996;8.334;2022-07-24T03:37:40;5.57;;;2.70;;
19059;SDS011;9663;48.996;8.334;2022-07-24T03:40:06;4.82;;;2.80;;
19059;SDS011;9663;48.996;8.334;2022-07-24T03:42:33;4.35;;;2.33;;
19059;SDS011;9663;48.996;8.334;2022-07-24T03:44:59;4.47;;;2.72;;
19059;SDS011;9663;48.996;8.334;2022-07-24T03:47:24;4.97;;;2.83;;
19059;SDS011;9663;48.996;8.334;2022-07-24T03:49:50;5.22;;;2.90;;
19059;SDS011;9663;48.996;8.334;2022-07-24T03:52:16;4.53;;;2.70;;
19059;SDS011;9663;48.996;8.334;2022-07-24T03:54:41;5.35;;;2.78;;
19059;SDS011;9663;48.996;8.334;2022-07-24T03:57:07;4.95;;;2.80;;
19059;SDS011;9663;48.996;8.334;2022-07-24T03:59:33;4.97;;;2.40;;
19059;SDS011;9663;48.996;8.334;2022-07-24T04:01:59;4.43;;;2.50;;
19059;SDS011;9663;48.996;8.334;2022-07-24T04:04:25;5.50;;;3.15;;
19059;SDS011;9663;48.996;8.334;2022-07-24T04:06:51;4.57;;;2.80;;
19059;SDS011;9663;48.996;8.334;2022-07-24T04:09:16;5.15;;;3.03;;
19059;SDS011;9663;48.996;8.334;2022-07-24T04:11:42;4.90;;;2.72;;
19059;SDS011;9663;48.996;8.334;2022-07-24T04:14:09;5.70;;;3.05;;
19059;SDS011;9663;48.996;8.334;2022-07-24T04:16:35;5.22;;;2.92;;
19059;SDS011;9663;48.996;8.334;2022-07-24T04:19:01;5.50;;;3.05;;
19059;SDS011;9663;48.996;8.334;2022-07-24T04:21:27;4.25;;;2.38;;
19059;SDS011;9663;48.996;8.334;2022-07-24T04:23:53;4.50;;;2.60;;
19059;SDS011;9663;48.996;8.334;2022-07-24T04:26:19;5.82;;;2.35;;
19059;SDS011;9663;48.996;8.334;2022-07-24T04:28:45;6.00;;;2.90;;
19059;SDS011;9663;48.996;8.334;2022-07-24T04:31:10;5.10;;;2.72;;
19059;SDS011;9663;48.996;8.334;2022-07-24T04:33:36;5.32;;;2.88;;
19059;SDS011;9663;48.996;8.334;2022-07-24T04:36:02;4.88;;;2.92;;
19059;SDS011;9663;48.996;8.334;2022-07-24T04:38:29;4.90;;;2.80;;
19059;SDS011;9663;48.996;8.334;2022-07-24T04:40:58;4.50;;;2.85;;
19059;SDS011;9663;48.996;8.334;2022-07-24T04:43:24;5.15;;;2.78;;
19059;SDS011;9663;48.996;8.334;2022-07-24T04:45:50;5.10;;;3.30;;
19059;SDS011;9663;48.996;8.334;2022-07-24T04:48:15;5.15;;;3.20;;
19059;SDS011;9663;48.996;8.334;2022-07-24T04:50:41;5.43;;;2.88;;
19059;SDS011;9663;48.996;8.334;2022-07-24T04:53:06;5.20;;;3.17;;
19059;SDS011;9663;48.996;8.334;2022-07-24T04:55:32;5.50;;;3.13;;
19059;SDS011;9663;48.996;8.334;2022-07-24T04:57:58;5.00;;;2.78;;
19059;SDS011;9663;48.996;8.334;2022-07-24T05:00:24;4.85;;;2.92;;
19059;SDS011;9663;48.996;8.334;2022-07-24T05:02:49;5.68;;;3.17;;
19059;SDS011;9663;48.996;8.334;2022-07-24T05:05:15;5.07;;;2.95;;
19059;SDS011;9663;48.996;8.334;2022-07-24T05:07:41;5.10;;;2.72;;
19059;SDS011;9663;48.996;8.334;2022-07-24T05:10:07;5.90;;;3.65;;
19059;SDS011;9663;48.996;8.334;2022-07-24T05:12:33;6.07;;;2.97;;
19059;SDS011;9663;48.996;8.334;2022-07-24T05:14:59;7.70;;;3.63;;
19059;SDS011;9663;48.996;8.334;2022-07-24T05:17:25;5.07;;;2.58;;
19059;SDS011;9663;48.996;8.334;2022-07-24T05:19:50;5.00;;;3.05;;
19059;SDS011;9663;48.996;8.334;2022-07-24T05:22:16;5.85;;;3.30;;
19059;SDS011;9663;48.996;8.334;2022-07-24T05:24:42;5.35;;;3.33;;
19059;SDS011;9663;48.996;8.334;2022-07-24T05:27:07;5.22;;;3.25;;
19059;SDS011;9663;48.996;8.334;2022-07-24T05:29:33;4.78;;;2.88;;
19059;SDS011;9663;48.996;8.334;2022-07-24T05:31:59;5.22;;;3.03;;
19059;SDS011;9663;48.996;8.334;2022-07-24T05:34:24;6.20;;;3.20;;
19059;SDS011;9663;48.996;8.334;2022-07-24T05:36:50;5.25;;;2.80;;
19059;SDS011;9663;48.996;8.334;2022-07-24T05:39:16;4.68;;;2.65;;
19059;SDS011;9663;48.996;8.334;2022-07-24T05:41:41;4.82;;;2.65;;
19059;SDS011;9663;48.996;8.334;2022-07-24T05:44:07;4.88;;;2.88;;
19059;SDS011;9663;48.996;8.334;2022-07-24T05:46:33;5.35;;;3.08;;
19059;SDS011;9663;48.996;8.334;2022-07-24T05:48:58;6.18;;;3.28;;
19059;SDS011;9663;48.996;8.334;2022-07-24T05:51:24;7.80;;;3.22;;
19059;SDS011;9663;48.996;8.334;2022-07-24T05:53:50;5.82;;;3.22;;
19059;SDS011;9663;48.996;8.334;2022-07-24T05:56:17;6.55;;;3.50;;
19059;SDS011;9663;48.996;8.334;2022-07-24T05:58:42;5.13;;;2.90;;
19059;SDS011;9663;48.996;8.334;2022-07-24T06:01:08;5.15;;;2.85;;
19059;SDS011;9663;48.996;8.334;2022-07-24T06:03:34;6.32;;;3.00;;
19059;SDS011;9663;48.996;8.334;2022-07-24T06:06:01;5.63;;;3.17;;
19059;SDS011;9663;48.996;8.334;2022-07-24T06:08:29;4.78;;;2.80;;
19059;SDS011;9663;48.996;8.334;2022-07-24T06:10:55;5.00;;;2.95;;
19059;SDS011;9663;48.996;8.334;2022-07-24T06:13:21;4.45;;;2.47;;
19059;SDS011;9663;48.996;8.334;2022-07-24T06:15:47;4.32;;;2.55;;
19059;SDS011;9663;48.996;8.334;2022-07-24T06:18:12;4.75;;;2.83;;
19059;SDS011;9663;48.996;8.334;2022-07-24T06:20:38;4.90;;;3.13;;
19059;SDS011;9663;48.996;8.334;2022-07-24T06:23:04;4.78;;;2.78;;
19059;SDS011;9663;48.996;8.334;2022-07-24T06:25:29;4.95;;;2.60;;
19059;SDS011;9663;48.996;8.334;2022-07-24T06:27:55;4.63;;;2.72;;
19059;SDS011;9663;48.996;8.334;2022-07-24T06:30:26;4.57;;;2.67;;
19059;SDS011;9663;48.996;8.334;2022-07-24T06:32:54;5.00;;;2.88;;
19059;SDS011;9663;48.996;8.334;2022-07-24T06:35:23;5.20;;;2.50;;
19059;SDS011;9663;48.996;8.334;2022-07-24T06:37:50;4.32;;;2.58;;
19059;SDS011;9663;48.996;8.334;2022-07-24T06:40:16;5.90;;;3.25;;
19059;SDS011;9663;48.996;8.334;2022-07-24T06:42:44;5.13;;;2.80;;
19059;SDS011;9663;48.996;8.334;2022-07-24T06:45:12;4.60;;;2.63;;
19059;SDS011;9663;48.996;8.334;2022-07-24T06:47:38;5.40;;;2.80;;
19059;SDS011;9663;48.996;8.334;2022-07-24T06:50:06;4.95;;;2.58;;
19059;SDS011;9663;48.996;8.334;2022-07-24T06:52:32;4.30;;;2.38;;
19059;SDS011;9663;48.996;8.334;2022-07-24T06:54:58;4.55;;;2.65;;
19059;SDS011;9663;48.996;8.334;2022-07-24T06:57:24;5.38;;;2.88;;
19059;SDS011;9663;48.996;8.334;2022-07-24T06:59:51;5.95;;;2.92;;
19059;SDS011;9663;48.996;8.334;2022-07-24T07:02:18;6.90;;;2.72;;
19059;SDS011;9663;48.996;8.334;2022-07-24T07:04:45;4.85;;;2.63;;
19059;SDS011;9663;48.996;8.334;2022-07-24T07:07:11;4.50;;;2.60;;
19059;SDS011;9663;48.996;8.334;2022-07-24T07:09:37;4.70;;;2.65;;
19059;SDS011;9663;48.996;8.334;2022-07-24T07:12:03;4.93;;;2.60;;
19059;SDS011;9663;48.996;8.334;2022-07-24T07:14:30;4.13;;;2.38;;
19059;SDS011;9663;48.996;8.334;2022-07-24T07:16:56;4.57;;;2.70;;
19059;SDS011;9663;48.996;8.334;2022-07-24T07:19:21;4.63;;;2.33;;
19059;SDS011;9663;48.996;8.334;2022-07-24T07:21:47;4.40;;;2.55;;
19059;SDS011;9663;48.996;8.334;2022-07-24T07:24:13;5.20;;;2.65;;
19059;SDS011;9663;48.996;8.334;2022-07-24T07:26:39;4.43;;;2.75;;
19059;SDS011;9663;48.996;8.334;2022-07-24T07:29:04;5.20;;;2.67;;
19059;SDS011;9663;48.996;8.334;2022-07-24T07:31:30;4.40;;;2.60;;
19059;SDS011;9663;48.996;8.334;2022-07-24T07:33:56;4.18;;;2.15;;
19059;SDS011;9663;48.996;8.334;2022-07-24T07:36:23;4.80;;;2.47;;
19059;SDS011;9663;48.996;8.334;2022-07-24T07:38:49;5.25;;;2.60;;
19059;SDS011;9663;48.996;8.334;2022-07-24T07:41:15;4.90;;;2.47;;
19059;SDS011;9663;48.996;8.334;2022-07-24T07:43:44;4.30;;;2.28;;
19059;SDS011;9663;48.996;8.334;2022-07-24T07:46:13;4.78;;;2.42;;
19059;SDS011;9663;48.996;8.334;2022-07-24T07:48:39;5.97;;;2.58;;
19059;SDS011;9663;48.996;8.334;2022-07-24T07:51:06;4.18;;;2.25;;
19059;SDS011;9663;48.996;8.334;2022-07-24T07:53:38;4.50;;;2.38;;
19059;SDS011;9663;48.996;8.334;2022-07-24T07:56:04;4.82;;;2.72;;
19059;SDS011;9663;48.996;8.334;2022-07-24T07:58:30;5.88;;;2.33;;
19059;SDS011;9663;48.996;8.334;2022-07-24T08:00:56;4.00;;;2.10;;
19059;SDS011;9663;48.996;8.334;2022-07-24T08:03:22;4.70;;;2.30;;
19059;SDS011;9663;48.996;8.334;2022-07-24T08:05:47;4.85;;;2.75;;
19059;SDS011;9663;48.996;8.334;2022-07-24T08:08:13;4.50;;;2.28;;
19059;SDS011;9663;48.996;8.334;2022-07-24T08:10:39;4.65;;;2.50;;
19059;SDS011;9663;48.996;8.334;2022-07-24T08:13:06;4.82;;;2.80;;
19059;SDS011;9663;48.996;8.334;2022-07-24T08:15:31;5.43;;;2.60;;
19059;SDS011;9663;48.996;8.334;2022-07-24T08:17:57;4.93;;;2.67;;
19059;SDS011;9663;48.996;8.334;2022-07-24T08:20:24;4.18;;;2.13;;
19059;SDS011;9663;48.996;8.334;2022-07-24T08:22:52;5.95;;;3.10;;
19059;SDS011;9663;48.996;8.334;2022-07-24T08:25:18;6.18;;;2.40;;
19059;SDS011;9663;48.996;8.334;2022-07-24T08:27:45;5.00;;;2.90;;
19059;SDS011;9663;48.996;8.334;2022-07-24T08:30:11;4.47;;;2.58;;
19059;SDS011;9663;48.996;8.334;2022-07-24T08:32:37;4.18;;;2.40;;
19059;SDS011;9663;48.996;8.334;2022-07-24T08:35:03;4.80;;;2.70;;
19059;SDS011;9663;48.996;8.334;2022-07-24T08:37:34;4.22;;;2.38;;
19059;SDS011;9663;48.996;8.334;2022-07-24T08:40:04;4.22;;;2.40;;
19059;SDS011;9663;48.996;8.334;2022-07-24T08:42:32;5.30;;;2.78;;
19059;SDS011;9663;48.996;8.334;2022-07-24T08:44:59;5.57;;;3.00;;
19059;SDS011;9663;48.996;8.334;2022-07-24T08:47:25;4.40;;;2.50;;
19059;SDS011;9663;48.996;8.334;2022-07-24T08:49:53;5.68;;;3.00;;
19059;SDS011;9663;48.996;8.334;2022-07-24T08:52:23;4.90;;;2.50;;
19059;SDS011;9663;48.996;8.334;2022-07-24T08:54:51;4.38;;;2.40;;
19059;SDS011;9663;48.996;8.334;2022-07-24T08:57:18;6.15;;;2.85;;
19059;SDS011;9663;48.996;8.334;2022-07-24T08:59:44;4.47;;;2.42;;
19059;SDS011;9663;48.996;8.334;2022-07-24T09:02:10;4.85;;;2.83;;
19059;SDS011;9663;48.996;8.334;2022-07-24T09:07:07;4.82;;;2.58;;
19059;SDS011;9663;48.996;8.334;2022-07-24T09:09:36;4.45;;;2.22;;
19059;SDS011;9663;48.996;8.334;2022-07-24T09:14:41;4.00;;;2.05;;
19059;SDS011;9663;48.996;8.334;2022-07-24T09:17:15;4.30;;;2.20;;
19059;SDS011;9663;48.996;8.334;2022-07-24T09:25:07;3.92;;;2.33;;
19059;SDS011;9663;48.996;8.334;2022-07-24T09:27:50;4.50;;;2.60;;
19059;SDS011;9663;48.996;8.334;2022-07-24T09:33:03;4.65;;;2.63;;
19059;SDS011;9663;48.996;8.334;2022-07-24T09:38:16;5.53;;;3.30;;
19059;SDS011;9663;48.996;8.334;2022-07-24T09:40:51;5.22;;;3.30;;
19059;SDS011;9663;48.996;8.334;2022-07-24T09:43:23;4.80;;;2.85;;
19059;SDS011;9663;48.996;8.334;2022-07-24T09:48:31;4.53;;;2.70;;
19059;SDS011;9663;48.996;8.334;2022-07-24T09:51:15;5.13;;;3.38;;
19059;SDS011;9663;48.996;8.334;2022-07-24T09:53:44;4.85;;;3.00;;
19059;SDS011;9663;48.996;8.334;2022-07-24T09:56:13;4.72;;;3.15;;
19059;SDS011;9663;48.996;8.334;2022-07-24T10:01:10;4.72;;;3.00;;
19059;SDS011;9663;48.996;8.334;2022-07-24T10:03:38;4.80;;;2.80;;
19059;SDS011;9663;48.996;8.334;2022-07-24T10:06:08;4.80;;;2.45;;
19059;SDS011;9663;48.996;8.334;2022-07-24T10:08:37;4.30;;;2.50;;
19059;SDS011;9663;48.996;8.334;2022-07-24T10:11:06;4.72;;;2.72;;
19059;SDS011;9663;48.996;8.334;2022-07-24T10:13:32;4.90;;;2.97;;
19059;SDS011;9663;48.996;8.334;2022-07-24T10:18:36;4.63;;;2.60;;
19059;SDS011;9663;48.996;8.334;2022-07-24T10:21:28;5.15;;;2.35;;
19059;SDS011;9663;48.996;8.334;2022-07-24T10:26:35;4.97;;;2.65;;
19059;SDS011;9663;48.996;8.334;2022-07-24T10:31:55;4.25;;;2.55;;
19059;SDS011;9663;48.996;8.334;2022-07-24T10:37:13;4.85;;;2.97;;
19059;SDS011;9663;48.996;8.334;2022-07-24T10:40:08;5.20;;;3.10;;
19059;SDS011;9663;48.996;8.334;2022-07-24T10:43:11;4.80;;;2.53;;
19059;SDS011;9663;48.996;8.334;2022-07-24T10:45:34;5.50;;;2.53;;
19059;SDS011;9663;48.996;8.334;2022-07-24T10:50:59;5.13;;;2.35;;
19059;SDS011;9663;48.996;8.334;2022-07-24T11:01:39;4.50;;;2.13;;
19059;SDS011;9663;48.996;8.334;2022-07-24T11:09:53;4.03;;;2.08;;
19059;SDS011;9663;48.996;8.334;2022-07-24T11:12:32;4.60;;;2.67;;
19059;SDS011;9663;48.996;8.334;2022-07-24T11:15:06;5.40;;;2.80;;
19059;SDS011;9663;48.996;8.334;2022-07-24T11:17:51;5.50;;;2.22;;
19059;SDS011;9663;48.996;8.334;2022-07-24T11:20:18;5.60;;;2.10;;
19059;SDS011;9663;48.996;8.334;2022-07-24T11:25:26;4.25;;;2.45;;
19059;SDS011;9663;48.996;8.334;2022-07-24T11:27:55;4.00;;;2.17;;
19059;SDS011;9663;48.996;8.334;2022-07-24T11:30:24;4.97;;;2.17;;
19059;SDS011;9663;48.996;8.334;2022-07-24T11:32:54;4.03;;;2.20;;
19059;SDS011;9663;48.996;8.334;2022-07-24T11:35:32;4.65;;;2.40;;
19059;SDS011;9663;48.996;8.334;2022-07-24T11:38:00;4.82;;;2.45;;
19059;SDS011;9663;48.996;8.334;2022-07-24T11:40:30;3.80;;;2.30;;
19059;SDS011;9663;48.996;8.334;2022-07-24T11:43:00;4.35;;;2.47;;
19059;SDS011;9663;48.996;8.334;2022-07-24T11:45:30;4.07;;;2.30;;
19059;SDS011;9663;48.996;8.334;2022-07-24T11:47:56;4.00;;;2.00;;
19059;SDS011;9663;48.996;8.334;2022-07-24T11:50:23;4.13;;;2.25;;
19059;SDS011;9663;48.996;8.334;2022-07-24T11:52:51;4.20;;;2.35;;
19059;SDS011;9663;48.996;8.334;2022-07-24T11:55:19;4.35;;;2.20;;
19059;SDS011;9663;48.996;8.334;2022-07-24T11:57:50;3.63;;;2.13;;
19059;SDS011;9663;48.996;8.334;2022-07-24T12:00:19;4.60;;;2.25;;
19059;SDS011;9663;48.996;8.334;2022-07-24T12:02:50;3.97;;;2.22;;
19059;SDS011;9663;48.996;8.334;2022-07-24T12:05:25;4.10;;;2.30;;
19059;SDS011;9663;48.996;8.334;2022-07-24T12:07:55;4.60;;;2.80;;
19059;SDS011;9663;48.996;8.334;2022-07-24T12:10:23;4.57;;;2.30;;
19059;SDS011;9663;48.996;8.334;2022-07-24T12:12:51;4.78;;;2.33;;
19059;SDS011;9663;48.996;8.334;2022-07-24T12:15:20;3.40;;;1.85;;
19059;SDS011;9663;48.996;8.334;2022-07-24T12:20:35;4.55;;;1.98;;
19059;SDS011;9663;48.996;8.334;2022-07-24T12:23:07;3.47;;;1.88;;
19059;SDS011;9663;48.996;8.334;2022-07-24T12:25:35;3.60;;;2.00;;
19059;SDS011;9663;48.996;8.334;2022-07-24T12:28:12;4.38;;;2.17;;
19059;SDS011;9663;48.996;8.334;2022-07-24T12:30:50;3.63;;;2.00;;
19059;SDS011;9663;48.996;8.334;2022-07-24T12:33:23;3.97;;;2.10;;
19059;SDS011;9663;48.996;8.334;2022-07-24T12:38:34;4.20;;;2.30;;
19059;SDS011;9663;48.996;8.334;2022-07-24T12:41:15;4.38;;;2.33;;
19059;SDS011;9663;48.996;8.334;2022-07-24T12:43:50;3.92;;;2.30;;
19059;SDS011;9663;48.996;8.334;2022-07-24T12:46:24;4.22;;;2.20;;
19059;SDS011;9663;48.996;8.334;2022-07-24T12:56:58;4.22;;;2.13;;
19059;SDS011;9663;48.996;8.334;2022-07-24T12:59:27;3.80;;;2.00;;
19059;SDS011;9663;48.996;8.334;2022-07-24T13:02:14;4.38;;;2.65;;
19059;SDS011;9663;48.996;8.334;2022-07-24T13:04:47;5.13;;;2.53;;
19059;SDS011;9663;48.996;8.334;2022-07-24T13:07:20;4.63;;;1.90;;
19059;SDS011;9663;48.996;8.334;2022-07-24T13:09:48;4.00;;;2.17;;
19059;SDS011;9663;48.996;8.334;2022-07-24T13:12:15;3.80;;;2.13;;
19059;SDS011;9663;48.996;8.334;2022-07-24T13:14:42;3.60;;;2.00;;
19059;SDS011;9663;48.996;8.334;2022-07-24T13:17:09;3.35;;;1.85;;
19059;SDS011;9663;48.996;8.334;2022-07-24T13:19:42;3.78;;;2.03;;
19059;SDS011;9663;48.996;8.334;2022-07-24T13:22:16;4.43;;;2.30;;
19059;SDS011;9663;48.996;8.334;2022-07-24T13:24:42;4.00;;;1.98;;
19059;SDS011;9663;48.996;8.334;2022-07-24T13:27:10;3.85;;;2.05;;
19059;SDS011;9663;48.996;8.334;2022-07-24T13:29:39;3.97;;;2.05;;
19059;SDS011;9663;48.996;8.334;2022-07-24T13:32:05;4.10;;;2.20;;
19059;SDS011;9663;48.996;8.334;2022-07-24T13:34:31;3.60;;;2.05;;
19059;SDS011;9663;48.996;8.334;2022-07-24T13:36:58;3.88;;;2.05;;
19059;SDS011;9663;48.996;8.334;2022-07-24T13:39:24;4.10;;;2.00;;
19059;SDS011;9663;48.996;8.334;2022-07-24T13:41:50;3.80;;;2.10;;
19059;SDS011;9663;48.996;8.334;2022-07-24T13:44:16;4.28;;;2.20;;
19059;SDS011;9663;48.996;8.334;2022-07-24T13:46:41;3.70;;;2.20;;
19059;SDS011;9663;48.996;8.334;2022-07-24T13:49:07;4.40;;;2.45;;
19059;SDS011;9663;48.996;8.334;2022-07-24T13:51:34;4.53;;;2.38;;
19059;SDS011;9663;48.996;8.334;2022-07-24T13:54:01;3.40;;;1.90;;
19059;SDS011;9663;48.996;8.334;2022-07-24T13:56:27;3.50;;;2.08;;
19059;SDS011;9663;48.996;8.334;2022-07-24T13:58:53;3.60;;;2.10;;
19059;SDS011;9663;48.996;8.334;2022-07-24T14:01:19;4.05;;;2.20;;
19059;SDS011;9663;48.996;8.334;2022-07-24T14:03:45;3.65;;;2.17;;
19059;SDS011;9663;48.996;8.334;2022-07-24T14:06:11;3.85;;;2.25;;
19059;SDS011;9663;48.996;8.334;2022-07-24T14:08:38;4.15;;;2.20;;
19059;SDS011;9663;48.996;8.334;2022-07-24T14:11:06;4.30;;;2.50;;
19059;SDS011;9663;48.996;8.334;2022-07-24T14:13:32;4.03;;;2.38;;
19059;SDS011;9663;48.996;8.334;2022-07-24T14:15:58;4.45;;;2.33;;
19059;SDS011;9663;48.996;8.334;2022-07-24T14:18:25;4.32;;;2.50;;
19059;SDS011;9663;48.996;8.334;2022-07-24T14:20:51;3.88;;;2.08;;
19059;SDS011;9663;48.996;8.334;2022-07-24T14:23:16;3.88;;;2.17;;
19059;SDS011;9663;48.996;8.334;2022-07-24T14:25:43;3.58;;;2.00;;
19059;SDS011;9663;48.996;8.334;2022-07-24T14:28:09;4.00;;;2.47;;
19059;SDS011;9663;48.996;8.334;2022-07-24T14:30:36;3.90;;;2.03;;
19059;SDS011;9663;48.996;8.334;2022-07-24T14:33:02;3.97;;;2.30;;
19059;SDS011;9663;48.996;8.334;2022-07-24T14:35:27;3.97;;;2.15;;
19059;SDS011;9663;48.996;8.334;2022-07-24T14:37:55;3.90;;;2.35;;
19059;SDS011;9663;48.996;8.334;2022-07-24T14:40:22;3.55;;;2.03;;
19059;SDS011;9663;48.996;8.334;2022-07-24T14:42:47;3.80;;;2.20;;
19059;SDS011;9663;48.996;8.334;2022-07-24T14:45:13;4.63;;;2.50;;
19059;SDS011;9663;48.996;8.334;2022-07-24T14:47:39;4.53;;;2.58;;
19059;SDS011;9663;48.996;8.334;2022-07-24T14:50:06;4.20;;;2.30;;
19059;SDS011;9663;48.996;8.334;2022-07-24T14:52:34;4.00;;;2.50;;
19059;SDS011;9663;48.996;8.334;2022-07-24T14:55:01;4.03;;;2.30;;
19059;SDS011;9663;48.996;8.334;2022-07-24T14:57:26;4.25;;;2.15;;
19059;SDS011;9663;48.996;8.334;2022-07-24T14:59:52;3.50;;;2.20;;
19059;SDS011;9663;48.996;8.334;2022-07-24T15:02:18;3.70;;;2.35;;
19059;SDS011;9663;48.996;8.334;2022-07-24T15:04:43;3.95;;;2.47;;
19059;SDS011;9663;48.996;8.334;2022-07-24T15:07:09;4.10;;;2.45;;
19059;SDS011;9663;48.996;8.334;2022-07-24T15:09:35;3.75;;;2.20;;
19059;SDS011;9663;48.996;8.334;2022-07-24T15:12:01;3.80;;;2.35;;
19059;SDS011;9663;48.996;8.334;2022-07-24T15:14:26;4.53;;;2.60;;
19059;SDS011;9663;48.996;8.334;2022-07-24T15:16:52;3.92;;;2.38;;
19059;SDS011;9663;48.996;8.334;2022-07-24T15:19:18;3.67;;;2.35;;
19059;SDS011;9663;48.996;8.334;2022-07-24T15:21:44;4.35;;;2.70;;
19059;SDS011;9663;48.996;8.334;2022-07-24T15:24:09;4.85;;;2.70;;
19059;SDS011;9663;48.996;8.334;2022-07-24T15:26:35;4.35;;;2.35;;
19059;SDS011;9663;48.996;8.334;2022-07-24T15:29:02;4.07;;;2.53;;
19059;SDS011;9663;48.996;8.334;2022-07-24T15:31:29;4.00;;;2.67;;
19059;SDS011;9663;48.996;8.334;2022-07-24T15:33:54;3.63;;;2.17;;
19059;SDS011;9663;48.996;8.334;2022-07-24T15:36:20;3.65;;;2.45;;
19059;SDS011;9663;48.996;8.334;2022-07-24T15:38:46;3.80;;;2.28;;
19059;SDS011;9663;48.996;8.334;2022-07-24T15:41:11;3.90;;;2.53;;
19059;SDS011;9663;48.996;8.334;2022-07-24T15:43:37;3.92;;;2.78;;
19059;SDS011;9663;48.996;8.334;2022-07-24T15:46:03;4.07;;;2.42;;
19059;SDS011;9663;48.996;8.334;2022-07-24T15:48:28;4.03;;;2.55;;
19059;SDS011;9663;48.996;8.334;2022-07-24T15:50:54;3.80;;;2.40;;
19059;SDS011;9663;48.996;8.334;2022-07-24T15:53:20;3.72;;;2.50;;
19059;SDS011;9663;48.996;8.334;2022-07-24T15:55:46;3.80;;;2.60;;
19059;SDS011;9663;48.996;8.334;2022-07-24T15:58:12;4.30;;;2.92;;
19059;SDS011;9663;48.996;8.334;2022-07-24T16:00:38;3.90;;;2.40;;
19059;SDS011;9663;48.996;8.334;2022-07-24T16:03:03;4.35;;;2.70;;
19059;SDS011;9663;48.996;8.334;2022-07-24T16:05:29;3.70;;;2.45;;